Time;durP1;ratioP1;P1;durP2;ratioP2;P2;SDS_P1;SDS_P2;PMS_P1;PMS_P2;Temp;Humidity;BMP_temperature;BMP_pressure;BME280_temperature;BME280_humidity;BME280_pressure;Samples;Min_cycle;Max_cycle;Signal;HPM_P1;HPM_P2
2022/06/26 08:15:13;;;;;;;6.55;3.22;;;;;;;29.01;56.03;100792.22;5068095;28;20442;-80
2022/06/26 08:17:42;;;;;;;3.30;3.00;;;;;;;29.27;53.34;100787.41;5068775;28;20036;-80
2022/06/26 08:20:11;;;;;;;2.92;2.72;;;;;;;29.42;53.52;100786.16;5068089;28;20048;-80
2022/06/26 08:22:39;;;;;;;5.13;2.92;;;;;;;29.46;53.69;100789.75;5068652;28;20049;-80
2022/06/26 08:25:07;;;;;;;3.83;2.83;;;;;;;29.58;52.70;100787.75;5068414;28;20051;-80
2022/06/26 08:27:35;;;;;;;3.20;2.67;;;;;;;29.74;53.39;100793.75;5067584;28;20045;-80
2022/06/26 08:30:04;;;;;;;3.97;2.95;;;;;;;29.87;51.68;100798.94;5068564;28;20044;-80
2022/06/26 08:32:37;;;;;;;4.35;2.80;;;;;;;29.97;51.64;100795.28;5068547;28;20400;-80
2022/06/26 08:35:07;;;;;;;6.25;2.67;;;;;;;30.24;50.66;100797.56;5068390;28;20056;-80
2022/06/26 08:37:35;;;;;;;5.47;3.03;;;;;;;30.17;51.27;100798.41;5068115;28;20055;-80
2022/06/26 08:40:04;;;;;;;5.75;2.70;;;;;;;30.25;50.64;100799.19;5067234;28;20052;-81
2022/06/26 08:42:33;;;;;;;5.38;3.20;;;;;;;30.31;49.91;100791.09;5068368;28;20052;-80
2022/06/26 08:45:01;;;;;;;3.38;2.70;;;;;;;30.36;49.17;100781.38;5068280;28;20052;-80
2022/06/26 08:47:35;;;;;;;4.25;2.60;;;;;;;30.39;49.68;100786.22;5068202;28;20051;-80
2022/06/26 08:50:04;;;;;;;6.55;3.10;;;;;;;30.10;49.41;100769.44;5052856;28;20049;-82
2022/06/26 08:52:33;;;;;;;4.40;2.92;;;;;;;29.99;50.23;100778.72;5068298;28;20048;-83
2022/06/26 08:55:03;;;;;;;5.65;2.58;;;;;;;30.17;49.56;100775.84;5066879;28;20051;-83
2022/06/26 08:57:33;;;;;;;4.88;3.38;;;;;;;30.42;49.11;100782.56;5066991;28;20037;-83
2022/06/26 09:00:03;;;;;;;5.93;2.70;;;;;;;30.44;48.10;100772.47;5067997;28;20492;-82
2022/06/26 09:02:31;;;;;;;6.45;2.67;;;;;;;30.44;48.37;100768.81;5068213;28;20495;-83
2022/06/26 09:05:00;;;;;;;3.85;2.95;;;;;;;30.44;48.75;100766.00;5068150;28;20534;-83
2022/06/26 09:07:28;;;;;;;2.60;2.40;;;;;;;30.52;47.43;100778.88;5068054;28;20041;-83
2022/06/26 09:09:56;;;;;;;2.88;2.30;;;;;;;30.52;46.94;100766.75;5067979;28;20369;-82
2022/06/26 09:12:35;;;;;;;4.60;2.42;;;;;;;30.60;46.50;100773.16;5067917;28;20060;-83
2022/06/26 09:15:04;;;;;;;3.97;2.53;;;;;;;30.62;45.87;100779.19;5067456;28;20625;-83
2022/06/26 09:17:32;;;;;;;3.22;2.35;;;;;;;30.68;46.07;100774.69;5067881;28;20040;-83
2022/06/26 09:20:01;;;;;;;3.72;2.50;;;;;;;30.85;45.61;100781.47;5066458;28;20036;-83
2022/06/26 09:22:28;;;;;;;4.82;2.35;;;;;;;30.68;46.10;100780.34;5067528;28;20047;-83
2022/06/26 09:24:58;;;;;;;5.43;2.47;;;;;;;30.93;46.41;100773.75;5063349;28;20052;-83
2022/06/26 09:27:26;;;;;;;4.57;2.35;;;;;;;30.87;44.70;100787.50;5054314;28;20044;-84
2022/06/26 09:29:56;;;;;;;6.68;2.33;;;;;;;30.86;44.90;100780.25;5047158;28;20403;-83
2022/06/26 09:32:24;;;;;;;2.83;2.05;;;;;;;30.97;44.89;100774.50;5049979;28;21396;-83
2022/06/26 09:34:54;;;;;;;5.47;2.35;;;;;;;31.13;44.67;100781.63;5043954;28;20392;-85
2022/06/26 09:37:23;;;;;;;3.15;2.10;;;;;;;31.08;43.74;100783.69;5041448;28;20047;-84
2022/06/26 09:40:15;;;;;;;5.43;2.88;;;;;;;31.17;43.42;100776.75;5051479;28;20041;-84
2022/06/26 09:42:43;;;;;;;3.30;2.25;;;;;;;31.20;41.40;100771.06;5053363;28;20056;-85
2022/06/26 09:45:12;;;;;;;4.50;2.22;;;;;;;31.47;42.20;100767.56;5052881;28;20377;-84
2022/06/26 09:47:43;;;;;;;3.83;1.80;;;;;;;31.48;41.16;100757.06;5053914;28;20045;-84
2022/06/26 09:50:12;;;;;;;5.43;1.88;;;;;;;31.55;41.55;100756.16;5038996;28;20425;-83
2022/06/26 09:52:42;;;;;;;3.28;1.85;;;;;;;31.45;41.92;100760.72;5053833;28;20052;-83
2022/06/26 09:55:12;;;;;;;2.72;1.90;;;;;;;31.50;42.27;100760.25;5040833;28;20045;-84
2022/06/26 09:57:42;;;;;;;3.53;2.00;;;;;;;31.47;41.56;100764.72;5050750;28;20056;-83
2022/06/26 10:00:10;;;;;;;2.13;1.90;;;;;;;31.61;41.33;100758.09;5052523;28;20037;-84
2022/06/26 10:08:22;;;;;;;4.53;2.20;;;;;;;31.81;40.75;100751.78;5044335;28;20048;-83
2022/06/26 10:10:54;;;;;;;4.28;1.77;;;;;;;31.83;40.40;100746.53;5043643;28;20037;-83
2022/06/26 10:13:29;;;;;;;2.25;2.03;;;;;;;32.21;39.85;100750.50;5040723;28;20053;-84
2022/06/26 10:53:26;;;;;;;3.90;2.03;;;;;;;32.10;38.60;100723.13;5107933;27;20419;-84
2022/06/26 10:56:04;;;;;;;5.18;1.88;;;;;;;32.30;38.04;100725.28;5093280;28;20493;-84
2022/06/26 10:58:39;;;;;;;4.15;1.85;;;;;;;32.39;37.32;100721.88;5091852;28;20043;-85
2022/06/26 11:01:10;;;;;;;2.53;1.83;;;;;;;32.60;37.51;100715.13;5088007;28;20040;-84
2022/06/26 11:03:40;;;;;;;1.55;1.45;;;;;;;32.73;37.08;100720.19;5086009;28;20044;-84
2022/06/26 11:06:09;;;;;;;2.20;1.88;;;;;;;32.84;36.31;100715.91;5088533;28;20379;-84
2022/06/26 11:08:49;;;;;;;2.63;1.70;;;;;;;33.02;36.20;100711.19;5088558;28;20056;-85
2022/06/26 11:11:28;;;;;;;3.13;1.63;;;;;;;33.10;35.64;100721.16;5079721;28;20059;-84
2022/06/26 11:14:09;;;;;;;2.78;2.05;;;;;;;33.07;35.98;100711.47;5088532;28;20036;-83
2022/06/26 11:16:45;;;;;;;2.17;1.48;;;;;;;33.18;35.97;100690.63;5086356;28;20056;-84
2022/06/26 11:19:23;;;;;;;2.90;1.60;;;;;;;33.17;35.63;100700.38;5085172;28;20062;-84
2022/06/26 11:22:06;;;;;;;6.07;1.95;;;;;;;33.32;35.81;100701.66;5088312;28;20048;-84
2022/06/26 11:24:34;;;;;;;4.95;1.75;;;;;;;33.71;35.34;100696.44;5088445;28;20040;-84
2022/06/26 11:27:03;;;;;;;3.80;1.73;;;;;;;33.58;35.58;100696.28;5087081;28;20078;-84
2022/06/26 11:29:32;;;;;;;1.98;1.60;;;;;;;33.50;35.28;100683.47;5087751;28;20394;-84
2022/06/26 11:32:00;;;;;;;3.40;1.67;;;;;;;33.52;35.15;100686.69;5086748;28;20055;-84
2022/06/26 11:34:28;;;;;;;1.70;1.58;;;;;;;33.74;34.85;100689.06;5085798;28;20036;-84
2022/06/26 11:37:00;;;;;;;2.58;1.67;;;;;;;33.73;34.87;100685.47;5095578;28;20048;-84
2022/06/26 11:39:38;;;;;;;2.90;1.50;;;;;;;33.86;35.29;100681.94;5097905;28;20056;-85
2022/06/26 11:42:22;;;;;;;3.03;1.80;;;;;;;33.68;34.87;100676.66;5087918;28;20052;-84
2022/06/26 11:44:53;;;;;;;2.92;2.20;;;;;;;33.58;34.76;100669.97;5087998;28;20039;-85
2022/06/26 11:47:21;;;;;;;2.35;1.67;;;;;;;33.98;34.47;100684.09;5087798;28;20067;-84
2022/06/26 11:49:50;;;;;;;5.43;1.90;;;;;;;33.98;34.43;100672.72;5090376;28;20041;-85
2022/06/26 11:52:18;;;;;;;5.13;2.15;;;;;;;34.06;34.73;100678.25;5106182;28;20510;-85
2022/06/26 11:54:46;;;;;;;2.08;1.50;;;;;;;34.14;33.69;100669.13;5108178;28;20052;-85
2022/06/26 11:57:14;;;;;;;6.20;2.13;;;;;;;34.15;35.23;100667.88;5108132;28;20047;-84
2022/06/26 11:59:43;;;;;;;8.00;2.00;;;;;;;34.38;34.45;100660.44;5097822;28;20048;-85
2022/06/26 12:02:23;;;;;;;3.42;1.70;;;;;;;34.44;33.30;100649.31;5114310;28;20058;-85
2022/06/26 12:04:59;;;;;;;2.03;1.70;;;;;;;34.14;32.90;100640.75;5080243;28;20044;-85
2022/06/26 12:07:46;;;;;;;5.70;1.77;;;;;;;34.53;34.01;100648.69;5116510;27;20045;-85
2022/06/26 12:10:35;;;;;;;3.33;1.90;;;;;;;34.75;33.36;100642.47;5081537;28;20039;-85
2022/06/26 12:13:04;;;;;;;5.43;1.70;;;;;;;34.91;33.35;100630.25;5107590;28;20055;-84
2022/06/26 12:15:36;;;;;;;3.10;1.70;;;;;;;35.01;33.41;100637.66;5084057;28;20045;-84
2022/06/26 12:18:07;;;;;;;5.78;2.05;;;;;;;34.70;32.79;100630.38;5088528;28;20039;-85
2022/06/26 12:20:37;;;;;;;3.50;1.45;;;;;;;34.41;33.04;100624.66;5081411;28;20043;-84
2022/06/26 12:23:07;;;;;;;1.80;1.63;;;;;;;34.40;33.51;100635.22;5079092;28;20047;-84
2022/06/26 12:25:37;;;;;;;2.60;1.90;;;;;;;34.44;33.36;100630.25;5072235;28;20048;-84
2022/06/26 12:28:06;;;;;;;2.15;1.88;;;;;;;34.94;33.81;100632.97;5073795;28;20056;-84
2022/06/26 12:30:40;;;;;;;2.28;1.50;;;;;;;35.14;32.24;100622.72;5073518;28;20033;-85
2022/06/26 12:33:08;;;;;;;1.35;1.25;;;;;;;35.31;32.62;100629.94;5072911;28;20064;-85
2022/06/26 12:35:36;;;;;;;7.35;1.80;;;;;;;35.42;31.59;100625.97;5071671;28;20471;-84
2022/06/26 12:38:21;;;;;;;2.92;1.50;;;;;;;35.59;31.21;100623.81;5073740;28;20044;-84
2022/06/26 12:40:52;;;;;;;1.83;1.40;;;;;;;35.67;30.75;100618.72;5069500;28;20295;-85
2022/06/26 12:43:21;;;;;;;3.63;1.42;;;;;;;35.81;30.84;100612.56;5072197;28;20052;-85
2022/06/26 12:45:49;;;;;;;3.65;1.65;;;;;;;35.81;30.35;100617.47;5073524;28;20045;-85
2022/06/26 12:48:21;;;;;;;5.07;1.65;;;;;;;35.75;30.73;100608.69;5073548;28;20049;-84
2022/06/26 12:50:49;;;;;;;2.08;1.58;;;;;;;35.76;30.56;100611.09;5075224;28;20044;-85
2022/06/26 12:53:17;;;;;;;2.50;1.33;;;;;;;35.83;29.22;100607.22;5084136;28;20518;-85
2022/06/26 12:55:45;;;;;;;2.78;1.58;;;;;;;35.92;29.26;100610.16;5085313;28;20083;-85
2022/06/26 12:58:14;;;;;;;3.85;1.60;;;;;;;36.02;29.86;100619.59;5087494;28;20040;-84
2022/06/26 13:00:42;;;;;;;3.65;1.60;;;;;;;36.14;29.08;100612.34;5075086;28;20041;-84
2022/06/26 13:03:10;;;;;;;1.65;1.27;;;;;;;36.24;29.46;100610.38;5082583;28;20044;-84
2022/06/26 13:05:38;;;;;;;2.53;1.50;;;;;;;36.08;29.31;100614.13;5086565;28;20403;-84
2022/06/26 13:08:06;;;;;;;2.80;1.23;;;;;;;36.25;28.99;100622.56;5081724;28;20035;-84
2022/06/26 13:10:34;;;;;;;3.13;1.33;;;;;;;36.08;29.49;100610.47;5077484;28;20045;-85
2022/06/26 13:13:02;;;;;;;3.72;1.35;;;;;;;35.85;29.75;100609.59;5072664;28;20056;-84
2022/06/26 13:15:30;;;;;;;6.40;1.58;;;;;;;35.92;29.68;100610.16;5071559;28;20036;-85
2022/06/26 13:17:58;;;;;;;3.30;1.40;;;;;;;36.11;29.24;100607.53;5072389;28;20056;-85
2022/06/26 13:20:26;;;;;;;3.90;1.20;;;;;;;36.30;29.54;100616.25;5082583;28;20600;-84
2022/06/26 13:22:54;;;;;;;3.72;1.50;;;;;;;36.25;28.25;100611.19;5078557;28;20040;-83
2022/06/26 13:25:22;;;;;;;1.42;0.98;;;;;;;36.18;28.74;100612.22;5074246;28;20053;-83
2022/06/26 13:27:50;;;;;;;2.20;1.40;;;;;;;36.39;28.57;100610.66;5070302;28;20041;-83
2022/06/26 13:30:18;;;;;;;3.22;1.25;;;;;;;36.20;28.53;100603.22;5070737;28;20395;-83
2022/06/26 13:32:46;;;;;;;3.63;1.50;;;;;;;36.26;28.42;100605.00;5066065;28;20742;-85
2022/06/26 13:35:14;;;;;;;5.38;1.65;;;;;;;36.38;27.57;100602.56;5071695;28;20064;-84
2022/06/26 13:37:43;;;;;;;1.75;1.17;;;;;;;36.22;28.32;100600.69;5082949;28;20058;-84
2022/06/26 13:40:11;;;;;;;4.68;1.77;;;;;;;36.33;27.28;100606.81;5071372;28;20055;-85
2022/06/26 13:42:39;;;;;;;2.28;1.45;;;;;;;36.41;28.05;100601.66;5071992;28;20063;-85
2022/06/26 13:45:08;;;;;;;4.38;1.20;;;;;;;36.36;27.33;100605.09;5071721;28;20407;-84
2022/06/26 13:47:37;;;;;;;3.08;1.58;;;;;;;36.40;27.67;100598.00;5071356;28;20051;-85
2022/06/26 13:50:06;;;;;;;3.55;1.33;;;;;;;36.64;27.48;100597.59;5076431;28;20486;-85
2022/06/26 13:52:35;;;;;;;3.17;1.08;;;;;;;36.82;26.04;100599.00;5092028;28;20048;-85
2022/06/26 13:55:06;;;;;;;3.20;1.13;;;;;;;36.71;26.41;100585.94;5107721;28;20044;-85
2022/06/26 13:57:38;;;;;;;2.00;1.42;;;;;;;36.73;26.76;100587.56;5091329;28;20501;-85
2022/06/26 14:00:10;;;;;;;2.92;1.02;;;;;;;36.68;26.99;100588.91;5090458;28;20051;-83
2022/06/26 14:26:28;;;;;;;4.07;1.27;;;;;;;36.07;26.29;100577.56;5068525;28;20766;-83
2022/06/26 14:28:56;;;;;;;2.85;1.15;;;;;;;36.45;26.88;100580.31;5067706;28;20051;-83
2022/06/26 14:31:24;;;;;;;4.70;1.13;;;;;;;36.51;26.10;100577.69;5058769;28;20053;-83
2022/06/26 14:33:59;;;;;;;2.42;1.27;;;;;;;36.53;26.38;100574.38;5057053;28;20037;-83
2022/06/26 14:36:30;;;;;;;2.30;1.35;;;;;;;36.43;25.88;100570.66;5060968;28;20048;-83
2022/06/26 14:38:58;;;;;;;2.90;0.90;;;;;;;36.79;26.35;100560.03;5058327;28;20045;-83
2022/06/26 14:41:31;;;;;;;2.15;1.40;;;;;;;37.01;24.93;100567.75;5064127;28;20514;-82
2022/06/26 14:44:00;;;;;;;;;;;;;;;37.14;25.86;100564.84;5056878;28;20056;-83
2022/06/26 14:46:29;;;;;;;1.95;0.95;;;;;;;37.11;24.98;100570.25;5060000;28;19952;-83
2022/06/26 14:48:57;;;;;;;2.40;1.15;;;;;;;36.99;25.09;100559.69;5063195;28;20399;-82
2022/06/26 14:51:26;;;;;;;3.47;1.83;;;;;;;36.84;25.19;100560.22;5062701;28;20131;-82
2022/06/26 14:53:54;;;;;;;1.67;0.88;;;;;;;37.01;24.71;100562.88;5065329;28;20036;-83
2022/06/26 14:56:23;;;;;;;1.90;1.17;;;;;;;37.19;24.99;100570.75;5065193;28;20495;-83
2022/06/26 14:58:52;;;;;;;3.60;1.25;;;;;;;36.94;25.36;100560.28;5060458;28;20049;-83
2022/06/26 15:01:19;;;;;;;2.05;1.20;;;;;;;37.10;25.95;100559.28;5058266;28;20068;-82
2022/06/26 15:03:48;;;;;;;1.17;1.02;;;;;;;36.83;25.26;100563.53;5061265;28;20047;-83
2022/06/26 15:06:16;;;;;;;3.10;1.30;;;;;;;36.83;25.41;100567.19;5062169;28;20052;-83
2022/06/26 15:08:53;;;;;;;3.67;1.27;;;;;;;36.74;25.36;100561.41;5061955;28;20067;-83
2022/06/26 15:11:22;;;;;;;2.22;1.00;;;;;;;36.73;26.07;100565.53;5063067;28;20061;-83
2022/06/26 15:13:50;;;;;;;5.28;0.93;;;;;;;36.67;25.26;100571.03;5057276;28;20044;-83
2022/06/26 15:16:18;;;;;;;3.05;1.20;;;;;;;36.87;26.17;100572.75;5058783;28;20048;-83
2022/06/26 15:18:47;;;;;;;3.22;1.15;;;;;;;36.67;24.74;100573.88;5062108;28;20049;-83
2022/06/26 15:21:15;;;;;;;5.20;1.45;;;;;;;36.65;25.20;100570.69;5056566;28;20041;-83
2022/06/26 15:23:43;;;;;;;2.70;0.95;;;;;;;36.68;26.27;100564.06;5064400;28;20049;-83
2022/06/26 15:26:11;;;;;;;5.72;1.20;;;;;;;36.45;25.94;100563.22;5053634;28;20108;-82
2022/06/26 15:28:39;;;;;;;2.45;1.50;;;;;;;36.40;26.72;100569.53;5052074;28;20040;-82
2022/06/26 15:31:07;;;;;;;6.70;1.60;;;;;;;36.27;26.20;100568.78;5048734;28;20049;-82
2022/06/26 15:33:35;;;;;;;4.03;1.00;;;;;;;36.19;26.03;100568.22;5046719;28;20045;-83
2022/06/26 15:36:04;;;;;;;4.68;1.27;;;;;;;35.95;27.14;100571.44;5059933;28;20052;-83
2022/06/26 15:38:32;;;;;;;2.42;1.30;;;;;;;36.02;27.46;100573.25;5047608;28;20037;-83
2022/06/26 15:41:00;;;;;;;4.97;1.02;;;;;;;36.05;27.53;100572.31;5045685;28;20068;-82
2022/06/26 15:43:28;;;;;;;2.70;1.20;;;;;;;35.79;27.20;100569.53;5049515;28;20044;-83
2022/06/26 15:45:56;;;;;;;4.70;1.33;;;;;;;35.82;27.92;100580.00;5037868;28;20052;-82
2022/06/26 15:48:28;;;;;;;2.53;1.20;;;;;;;35.28;28.07;100568.25;5039043;28;20044;-83
2022/06/26 15:50:57;;;;;;;5.25;1.40;;;;;;;34.84;28.24;100563.81;5049268;28;20044;-82
2022/06/26 15:53:25;;;;;;;2.20;1.42;;;;;;;34.78;28.80;100574.16;5046134;28;20047;-82
2022/06/26 15:55:53;;;;;;;2.22;1.15;;;;;;;34.70;28.94;100572.78;5049051;28;20045;-82
2022/06/26 15:58:22;;;;;;;4.57;1.02;;;;;;;34.70;28.79;100569.94;5036199;28;20044;-82
2022/06/26 16:00:50;;;;;;;5.35;1.95;;;;;;;34.47;29.23;100565.25;5044198;28;20044;-82
2022/06/26 16:03:18;;;;;;;4.20;1.20;;;;;;;34.41;29.72;100567.84;5049304;28;20045;-82
2022/06/26 16:05:46;;;;;;;3.92;1.45;;;;;;;34.42;30.08;100569.44;5038961;28;20045;-82
2022/06/26 16:08:14;;;;;;;2.72;1.58;;;;;;;34.43;29.84;100568.19;5045412;28;20049;-82
2022/06/26 16:10:42;;;;;;;3.40;1.58;;;;;;;34.34;30.28;100559.53;5039450;28;20045;-82
2022/06/26 16:13:10;;;;;;;6.00;2.13;;;;;;;34.28;30.47;100560.06;5041489;28;20048;-82
2022/06/26 16:15:57;;;;;;;1.83;1.70;;;;;;;34.25;30.18;100560.94;5033813;28;20041;-82
2022/06/26 16:18:27;;;;;;;4.40;2.17;;;;;;;34.13;30.17;100553.16;5046666;28;20042;-82
2022/06/26 16:20:57;;;;;;;3.90;1.60;;;;;;;34.21;30.52;100563.09;5039834;28;20049;-82
2022/06/26 16:26:19;;;;;;;2.53;1.30;;;;;;;34.11;30.76;100556.44;5034765;28;20050;-82
2022/06/26 16:28:51;;;;;;;8.75;1.35;;;;;;;34.12;30.91;100560.09;5034795;28;20041;-82
2022/06/26 16:31:21;;;;;;;7.10;1.77;;;;;;;34.16;30.49;100553.06;5057346;28;20045;-82
2022/06/26 16:33:50;;;;;;;4.80;1.38;;;;;;;34.12;30.96;100548.72;5048084;28;20041;-82
2022/06/26 16:36:19;;;;;;;3.45;2.28;;;;;;;34.05;30.35;100558.22;5036458;28;20053;-82
2022/06/26 16:38:48;;;;;;;4.75;1.77;;;;;;;34.09;31.03;100558.13;5039798;28;20507;-82
2022/06/26 16:41:17;;;;;;;5.78;1.60;;;;;;;34.09;31.24;100560.97;5038896;28;20046;-82
2022/06/26 16:43:45;;;;;;;3.50;1.88;;;;;;;34.12;31.04;100555.22;5036990;28;20633;-82
2022/06/26 16:46:13;;;;;;;8.52;2.10;;;;;;;34.02;31.82;100554.19;5034575;28;20056;-82
2022/06/26 16:48:42;;;;;;;5.00;1.58;;;;;;;34.03;31.09;100555.00;5031284;28;20042;-82
2022/06/26 16:51:14;;;;;;;3.50;1.35;;;;;;;33.96;31.38;100555.97;5027944;28;20049;-82
2022/06/26 16:53:46;;;;;;;5.95;1.15;;;;;;;33.95;31.77;100553.59;5022464;28;20037;-82
2022/06/26 16:56:15;;;;;;;2.53;1.38;;;;;;;33.90;31.90;100554.91;5034824;28;20042;-82
2022/06/26 16:58:49;;;;;;;6.28;1.52;;;;;;;33.81;31.41;100563.28;5022390;28;20045;-82
2022/06/26 17:01:18;;;;;;;1.98;1.77;;;;;;;33.73;31.84;100562.66;5030684;28;20400;-82
2022/06/26 17:03:46;;;;;;;2.45;1.77;;;;;;;33.63;31.81;100556.78;5031744;28;20037;-83
2022/06/26 17:06:14;;;;;;;5.03;1.55;;;;;;;33.61;31.75;100561.28;5031256;28;20060;-82
2022/06/26 17:08:42;;;;;;;5.18;2.58;;;;;;;33.61;31.58;100559.25;5032481;28;22133;-82
2022/06/26 17:11:12;;;;;;;5.07;1.80;;;;;;;33.66;31.74;100555.09;5032378;28;20041;-82
2022/06/26 17:13:42;;;;;;;2.90;1.90;;;;;;;33.80;31.09;100551.13;5033139;28;20045;-83
2022/06/26 17:16:12;;;;;;;5.15;2.08;;;;;;;33.75;31.00;100558.13;5040059;28;20049;-84
2022/06/26 17:18:41;;;;;;;3.63;1.52;;;;;;;33.66;31.46;100560.00;5032021;28;20071;-83
2022/06/26 17:21:09;;;;;;;2.85;1.50;;;;;;;33.55;31.62;100554.56;5030506;28;20053;-83
2022/06/26 17:23:38;;;;;;;6.35;1.73;;;;;;;33.54;31.71;100550.94;5027996;28;20049;-83
2022/06/26 17:26:07;;;;;;;2.97;1.88;;;;;;;33.55;31.54;100557.38;5044680;28;20068;-83
2022/06/26 17:28:36;;;;;;;8.57;2.38;;;;;;;33.60;31.88;100548.34;5030880;28;20389;-83
2022/06/26 17:31:05;;;;;;;4.97;1.75;;;;;;;33.47;31.89;100548.25;5035582;28;20484;-83
2022/06/26 17:33:34;;;;;;;5.78;1.20;;;;;;;33.43;32.11;100542.63;5020339;28;20042;-83
2022/06/26 17:36:02;;;;;;;5.05;2.05;;;;;;;33.38;31.79;100537.50;5038464;28;20052;-83
2022/06/26 17:38:31;;;;;;;5.50;1.58;;;;;;;33.35;31.53;100535.53;5046861;28;20483;-83
2022/06/26 17:40:59;;;;;;;6.43;1.77;;;;;;;33.28;31.73;100527.19;5043948;28;20108;-83
2022/06/26 17:43:27;;;;;;;3.08;1.20;;;;;;;33.23;32.17;100520.03;5036990;28;20488;-83
2022/06/26 17:45:55;;;;;;;4.95;1.20;;;;;;;33.24;31.57;100528.06;5034615;28;20064;-83
2022/06/26 17:48:24;;;;;;;3.45;1.48;;;;;;;33.09;33.00;100532.47;5066116;28;20041;-83
2022/06/26 17:50:52;;;;;;;5.50;1.80;;;;;;;33.16;31.88;100520.97;5046073;28;20045;-83
2022/06/26 17:53:21;;;;;;;4.43;1.55;;;;;;;33.22;32.50;100526.91;5040815;28;20052;-83
2022/06/26 17:55:49;;;;;;;2.88;1.60;;;;;;;33.16;31.75;100517.31;5039283;28;20056;-83
2022/06/26 17:58:17;;;;;;;3.42;1.00;;;;;;;33.16;31.64;100523.81;5039015;28;20503;-83
2022/06/26 18:00:46;;;;;;;3.95;1.58;;;;;;;33.13;32.14;100524.66;5031718;28;20037;-83
2022/06/26 18:03:22;;;;;;;3.70;1.80;;;;;;;33.19;32.33;100517.25;5030180;28;21410;-83
2022/06/26 18:05:50;;;;;;;8.57;1.98;;;;;;;33.06;34.12;100519.16;5030310;28;20049;-84
2022/06/26 18:08:17;;;;;;;2.83;1.45;;;;;;;32.94;33.32;100512.91;5036312;28;20052;-83
2022/06/26 18:10:46;;;;;;;5.72;1.48;;;;;;;32.97;32.94;100517.72;5031950;28;20037;-83
2022/06/26 18:13:16;;;;;;;10.32;1.75;;;;;;;32.87;32.87;100517.91;5068547;28;20040;-83
2022/06/26 18:15:45;;;;;;;6.15;2.13;;;;;;;32.91;33.41;100525.13;5036338;28;20057;-84
2022/06/26 18:18:14;;;;;;;4.57;1.70;;;;;;;32.84;33.65;100517.56;5035049;28;20057;-83
2022/06/26 18:20:42;;;;;;;4.18;1.20;;;;;;;32.72;32.96;100518.22;5047269;28;20045;-83
2022/06/26 18:23:11;;;;;;;5.28;1.33;;;;;;;32.75;33.08;100516.56;5042770;28;20071;-83
2022/06/26 18:25:39;;;;;;;3.58;2.17;;;;;;;32.73;33.48;100519.03;5035743;28;20037;-83
2022/06/26 18:28:08;;;;;;;8.30;1.80;;;;;;;32.70;33.55;100527.16;5034078;28;20045;-83
2022/06/26 18:30:37;;;;;;;2.95;1.63;;;;;;;32.68;33.71;100517.50;5033171;28;20056;-82
2022/06/26 18:33:05;;;;;;;7.85;1.98;;;;;;;32.64;34.09;100528.91;5031975;28;20041;-82
2022/06/26 18:35:33;;;;;;;6.35;2.10;;;;;;;32.62;33.49;100520.03;5037056;28;20044;-82
2022/06/26 18:38:02;;;;;;;3.70;1.77;;;;;;;32.56;34.44;100521.78;5043652;28;20045;-82
2022/06/26 18:40:47;;;;;;;3.03;1.92;;;;;;;32.58;34.75;100527.81;5050306;28;20616;-82
2022/06/26 18:43:15;;;;;;;5.80;1.70;;;;;;;32.53;36.52;100534.78;5048884;28;20060;-83
2022/06/26 18:45:43;;;;;;;3.70;1.60;;;;;;;32.23;38.45;100524.41;5040719;28;20046;-82
2022/06/26 18:48:13;;;;;;;4.53;2.08;;;;;;;32.21;38.91;100532.53;5034675;28;20057;-82
2022/06/26 18:50:45;;;;;;;3.33;1.98;;;;;;;32.21;38.93;100533.34;5045967;28;20049;-82
2022/06/26 18:53:13;;;;;;;7.72;2.58;;;;;;;32.25;40.24;100530.44;5036607;28;20130;-82
2022/06/26 18:55:41;;;;;;;2.63;1.65;;;;;;;32.25;40.03;100544.59;5038766;28;20041;-83
2022/06/26 18:58:09;;;;;;;2.22;1.98;;;;;;;32.01;40.78;100539.72;5046741;28;20045;-83
2022/06/26 19:00:37;;;;;;;4.45;1.98;;;;;;;31.86;41.11;100544.03;5047009;28;20056;-82
2022/06/26 19:03:07;;;;;;;3.83;2.13;;;;;;;31.76;41.60;100534.44;5047113;28;20510;-84
2022/06/26 19:05:35;;;;;;;5.20;2.28;;;;;;;31.74;40.63;100545.41;5036694;28;20053;-85
2022/06/26 19:08:23;;;;;;;4.80;2.00;;;;;;;31.66;40.58;100552.41;5033903;28;20045;-84
2022/06/26 19:10:51;;;;;;;5.70;2.00;;;;;;;31.55;40.74;100547.72;5031512;28;20041;-84
2022/06/26 19:16:14;;;;;;;4.90;1.90;;;;;;;31.45;40.50;100571.28;5044782;28;20045;-84
2022/06/26 19:18:45;;;;;;;3.65;1.70;;;;;;;31.38;40.30;100560.91;5028990;28;20052;-85
2022/06/26 19:21:14;;;;;;;2.40;1.55;;;;;;;31.31;41.01;100570.28;5039347;28;20407;-84
2022/06/26 19:23:42;;;;;;;4.32;2.00;;;;;;;31.30;41.33;100579.16;5034562;28;20049;-84
2022/06/26 19:26:10;;;;;;;3.90;1.77;;;;;;;31.22;40.99;100581.25;5038381;28;20045;-84
2022/06/26 19:28:38;;;;;;;5.18;2.05;;;;;;;31.25;41.14;100591.72;5036126;28;20053;-86
2022/06/26 19:31:12;;;;;;;3.72;2.17;;;;;;;31.13;41.16;100589.47;5033691;28;20503;-84
2022/06/26 19:34:02;;;;;;;2.55;1.70;;;;;;;31.21;40.53;100585.31;5031537;28;20038;-83
2022/06/26 19:36:31;;;;;;;3.20;1.88;;;;;;;31.08;41.13;100588.69;5041245;28;20045;-83
2022/06/26 19:38:59;;;;;;;3.42;1.90;;;;;;;31.08;40.62;100588.69;5040295;28;20076;-83
2022/06/26 19:41:27;;;;;;;2.05;1.63;;;;;;;30.95;41.21;100591.28;5038066;28;20053;-83
2022/06/26 19:43:55;;;;;;;2.40;1.33;;;;;;;30.90;41.11;100588.94;5033958;28;20392;-83
2022/06/26 19:46:24;;;;;;;3.47;1.50;;;;;;;30.74;40.51;100602.81;5044652;28;20041;-83
2022/06/26 19:48:52;;;;;;;2.63;1.95;;;;;;;30.81;40.48;100612.03;5045089;28;20049;-83
2022/06/26 19:51:20;;;;;;;3.30;2.28;;;;;;;30.79;40.62;100634.22;5042948;28;20752;-84
2022/06/26 19:53:48;;;;;;;2.63;1.50;;;;;;;30.78;40.78;100637.50;5045461;28;20506;-84
2022/06/26 19:56:16;;;;;;;2.95;1.55;;;;;;;30.79;40.56;100639.09;5050153;28;20045;-84
2022/06/26 19:58:44;;;;;;;2.38;1.52;;;;;;;30.76;39.81;100645.56;5043175;28;20056;-84
2022/06/26 20:01:12;;;;;;;2.67;1.75;;;;;;;30.64;40.23;100647.66;5048482;28;20037;-85
2022/06/26 20:06:28;;;;;;;5.00;1.58;;;;;;;30.44;40.50;100659.53;5037081;28;20037;-84
2022/06/26 20:08:56;;;;;;;5.10;1.85;;;;;;;30.41;40.97;100680.13;5042923;28;20604;-84
2022/06/26 20:11:40;;;;;;;2.67;1.45;;;;;;;30.40;41.79;100683.38;5034984;28;20042;-84
2022/06/26 20:14:09;;;;;;;2.28;1.70;;;;;;;30.27;41.71;100686.69;5022698;28;20056;-84
2022/06/26 20:16:37;;;;;;;3.08;1.55;;;;;;;30.21;41.32;100690.38;5032355;28;20045;-84
2022/06/26 20:19:06;;;;;;;1.60;1.50;;;;;;;30.12;41.75;100680.34;5032252;28;20064;-84
2022/06/26 20:21:33;;;;;;;2.78;1.38;;;;;;;30.17;40.96;100696.03;5029855;28;20045;-84
2022/06/26 20:24:02;;;;;;;3.45;1.63;;;;;;;30.22;41.07;100703.25;5032269;28;20041;-84
2022/06/26 20:26:31;;;;;;;4.05;1.63;;;;;;;30.07;41.15;100691.22;5042153;28;20061;-84
2022/06/26 20:29:00;;;;;;;3.28;1.33;;;;;;;30.04;40.05;100692.84;5049789;28;20045;-84
2022/06/26 20:31:29;;;;;;;1.23;1.13;;;;;;;30.04;39.65;100681.56;5043268;28;20049;-84
2022/06/26 20:33:59;;;;;;;1.92;1.40;;;;;;;30.06;38.94;100678.34;5040690;28;20061;-84
2022/06/26 20:36:28;;;;;;;1.42;1.33;;;;;;;30.10;38.35;100685.59;5046584;28;20067;-84
2022/06/26 20:39:48;;;;;;;5.88;1.55;;;;;;;30.03;37.90;100706.19;5087492;27;20523;-84
2022/06/26 20:42:16;;;;;;;2.92;1.50;;;;;;;30.10;37.96;100696.09;5070967;28;20049;-84
2022/06/26 20:44:45;;;;;;;2.55;1.35;;;;;;;29.95;37.83;100701.78;5069007;28;20045;-84
2022/06/26 20:47:15;;;;;;;2.58;1.40;;;;;;;29.85;37.26;100711.91;5071569;28;20036;-84
2022/06/26 20:49:43;;;;;;;2.70;1.40;;;;;;;29.94;37.47;100714.28;5069085;28;20045;-84
2022/06/26 20:52:11;;;;;;;2.25;1.45;;;;;;;29.94;37.82;100717.09;5080076;28;20391;-82
2022/06/26 20:54:39;;;;;;;3.08;1.30;;;;;;;29.76;37.84;100722.84;5078052;28;20048;-73
2022/06/26 20:57:07;;;;;;;5.18;1.75;;;;;;;29.59;38.09;100724.50;5078241;28;20402;-73
2022/06/26 20:59:36;;;;;;;9.65;1.98;;;;;;;29.21;39.28;100713.72;5075300;28;20047;-74
2022/06/26 21:02:04;;;;;;;1.83;1.45;;;;;;;29.08;39.62;100722.63;5078120;28;20040;-74
2022/06/26 21:04:32;;;;;;;1.73;1.27;;;;;;;28.97;38.55;100727.47;5070729;28;20040;-74
2022/06/26 21:07:00;;;;;;;2.10;1.02;;;;;;;28.79;39.59;100714.16;5083337;28;20040;-73